sensor_id;sensor_type;location;lat;lon;timestamp;pressure;altitude;pressure_sealevel;temperature
11321;BMP180;5715;48.234;14.320;2023-11-18T00:00:21;99107.00;;;9.90
11321;BMP180;5715;48.234;14.320;2023-11-18T00:03:09;99112.00;;;9.90
11321;BMP180;5715;48.234;14.320;2023-11-18T00:05:57;99125.00;;;9.80
11321;BMP180;5715;48.234;14.320;2023-11-18T00:08:45;99119.00;;;9.70
11321;BMP180;5715;48.234;14.320;2023-11-18T00:11:32;99124.00;;;9.70
11321;BMP180;5715;48.234;14.320;2023-11-18T00:14:21;99131.00;;;9.60
11321;BMP180;5715;48.234;14.320;2023-11-18T00:17:09;99131.00;;;9.50
11321;BMP180;5715;48.234;14.320;2023-11-18T00:19:57;99136.00;;;9.50
11321;BMP180;5715;48.234;14.320;2023-11-18T00:22:45;99146.00;;;9.70
11321;BMP180;5715;48.234;14.320;2023-11-18T00:25:33;99145.00;;;9.60
11321;BMP180;5715;48.234;14.320;2023-11-18T00:28:22;99153.00;;;9.60
11321;BMP180;5715;48.234;14.320;2023-11-18T00:31:10;99155.00;;;9.60
11321;BMP180;5715;48.234;14.320;2023-11-18T00:33:57;99162.00;;;9.60
11321;BMP180;5715;48.234;14.320;2023-11-18T00:36:45;99168.00;;;9.60
11321;BMP180;5715;48.234;14.320;2023-11-18T00:39:33;99170.00;;;9.60
11321;BMP180;5715;48.234;14.320;2023-11-18T00:42:20;99173.00;;;9.60
11321;BMP180;5715;48.234;14.320;2023-11-18T00:45:08;99177.00;;;9.70
11321;BMP180;5715;48.234;14.320;2023-11-18T00:47:56;99181.00;;;9.70
11321;BMP180;5715;48.234;14.320;2023-11-18T00:50:44;99190.00;;;9.60
11321;BMP180;5715;48.234;14.320;2023-11-18T00:53:31;99196.00;;;9.80
11321;BMP180;5715;48.234;14.320;2023-11-18T00:56:20;99192.00;;;9.80
11321;BMP180;5715;48.234;14.320;2023-11-18T00:59:08;99197.00;;;9.70
11321;BMP180;5715;48.234;14.320;2023-11-18T01:01:56;99202.00;;;9.80
11321;BMP180;5715;48.234;14.320;2023-11-18T01:04:47;99207.00;;;9.70
11321;BMP180;5715;48.234;14.320;2023-11-18T01:07:34;99208.00;;;9.80
11321;BMP180;5715;48.234;14.320;2023-11-18T01:10:23;99193.00;;;9.80
11321;BMP180;5715;48.234;14.320;2023-11-18T01:13:11;99207.00;;;9.90
11321;BMP180;5715;48.234;14.320;2023-11-18T01:15:58;99216.00;;;9.80
11321;BMP180;5715;48.234;14.320;2023-11-18T01:18:46;99212.00;;;10.00
11321;BMP180;5715;48.234;14.320;2023-11-18T01:21:34;99214.00;;;10.00
11321;BMP180;5715;48.234;14.320;2023-11-18T01:24:23;99219.00;;;9.90
11321;BMP180;5715;48.234;14.320;2023-11-18T01:27:10;99221.00;;;10.00
11321;BMP180;5715;48.234;14.320;2023-11-18T01:29:59;99220.00;;;9.80
11321;BMP180;5715;48.234;14.320;2023-11-18T01:32:47;99229.00;;;9.90
11321;BMP180;5715;48.234;14.320;2023-11-18T01:35:34;99228.00;;;9.90
11321;BMP180;5715;48.234;14.320;2023-11-18T01:38:22;99229.00;;;9.80
11321;BMP180;5715;48.234;14.320;2023-11-18T01:41:09;99218.00;;;9.80
11321;BMP180;5715;48.234;14.320;2023-11-18T01:43:57;99232.00;;;9.60
11321;BMP180;5715;48.234;14.320;2023-11-18T01:46:45;99239.00;;;9.70
11321;BMP180;5715;48.234;14.320;2023-11-18T01:49:36;99237.00;;;9.50
11321;BMP180;5715;48.234;14.320;2023-11-18T01:52:28;99232.00;;;9.70
11321;BMP180;5715;48.234;14.320;2023-11-18T01:55:18;99237.00;;;9.80
11321;BMP180;5715;48.234;14.320;2023-11-18T01:58:05;99230.00;;;9.60
11321;BMP180;5715;48.234;14.320;2023-11-18T02:00:57;99225.00;;;9.70
11321;BMP180;5715;48.234;14.320;2023-11-18T02:03:45;99226.00;;;9.60
11321;BMP180;5715;48.234;14.320;2023-11-18T02:06:34;99219.00;;;9.60
11321;BMP180;5715;48.234;14.320;2023-11-18T02:09:24;99230.00;;;9.60
11321;BMP180;5715;48.234;14.320;2023-11-18T02:12:55;99223.00;;;9.60
11321;BMP180;5715;48.234;14.320;2023-11-18T02:15:47;99218.00;;;9.60
11321;BMP180;5715;48.234;14.320;2023-11-18T02:18:38;99230.00;;;9.60
11321;BMP180;5715;48.234;14.320;2023-11-18T02:21:29;99225.00;;;9.60
11321;BMP180;5715;48.234;14.320;2023-11-18T02:24:34;99236.00;;;9.50
11321;BMP180;5715;48.234;14.320;2023-11-18T02:27:24;99225.00;;;9.50
11321;BMP180;5715;48.234;14.320;2023-11-18T02:30:14;99236.00;;;9.50
11321;BMP180;5715;48.234;14.320;2023-11-18T02:33:40;99221.00;;;9.60
11321;BMP180;5715;48.234;14.320;2023-11-18T02:36:39;99235.00;;;9.60
11321;BMP180;5715;48.234;14.320;2023-11-18T02:39:43;99237.00;;;9.70
11321;BMP180;5715;48.234;14.320;2023-11-18T02:42:31;99235.00;;;9.70
11321;BMP180;5715;48.234;14.320;2023-11-18T02:45:21;99231.00;;;9.70
11321;BMP180;5715;48.234;14.320;2023-11-18T02:48:09;99236.00;;;9.60
11321;BMP180;5715;48.234;14.320;2023-11-18T02:50:57;99241.00;;;9.70
11321;BMP180;5715;48.234;14.320;2023-11-18T02:53:44;99251.00;;;9.70
11321;BMP180;5715;48.234;14.320;2023-11-18T02:56:32;99258.00;;;9.80
11321;BMP180;5715;48.234;14.320;2023-11-18T02:59:20;99262.00;;;9.60
11321;BMP180;5715;48.234;14.320;2023-11-18T03:02:07;99263.00;;;9.60
11321;BMP180;5715;48.234;14.320;2023-11-18T03:04:55;99262.00;;;9.60
11321;BMP180;5715;48.234;14.320;2023-11-18T03:07:47;99256.00;;;9.70
11321;BMP180;5715;48.234;14.320;2023-11-18T03:10:37;99252.00;;;9.80
11321;BMP180;5715;48.234;14.320;2023-11-18T03:13:25;99253.00;;;9.90
11321;BMP180;5715;48.234;14.320;2023-11-18T03:16:14;99255.00;;;9.90
11321;BMP180;5715;48.234;14.320;2023-11-18T03:19:02;99259.00;;;9.90
11321;BMP180;5715;48.234;14.320;2023-11-18T03:21:52;99256.00;;;10.00
11321;BMP180;5715;48.234;14.320;2023-11-18T03:24:42;99259.00;;;10.00
11321;BMP180;5715;48.234;14.320;2023-11-18T03:27:30;99261.00;;;10.10
11321;BMP180;5715;48.234;14.320;2023-11-18T03:30:17;99264.00;;;10.10
11321;BMP180;5715;48.234;14.320;2023-11-18T03:33:05;99258.00;;;10.10
11321;BMP180;5715;48.234;14.320;2023-11-18T03:35:53;99270.00;;;10.20
11321;BMP180;5715;48.234;14.320;2023-11-18T03:38:43;99271.00;;;10.10
11321;BMP180;5715;48.234;14.320;2023-11-18T03:41:31;99278.00;;;10.30
11321;BMP180;5715;48.234;14.320;2023-11-18T03:44:18;99273.00;;;10.40
11321;BMP180;5715;48.234;14.320;2023-11-18T03:47:06;99278.00;;;10.30
11321;BMP180;5715;48.234;14.320;2023-11-18T03:49:54;99279.00;;;10.30
11321;BMP180;5715;48.234;14.320;2023-11-18T03:52:41;99282.00;;;10.40
11321;BMP180;5715;48.234;14.320;2023-11-18T03:55:29;99283.00;;;10.50
11321;BMP180;5715;48.234;14.320;2023-11-18T03:58:17;99265.00;;;10.60
11321;BMP180;5715;48.234;14.320;2023-11-18T04:01:05;99276.00;;;10.40
11321;BMP180;5715;48.234;14.320;2023-11-18T04:03:54;99279.00;;;10.50
11321;BMP180;5715;48.234;14.320;2023-11-18T04:06:42;99288.00;;;10.60
11321;BMP180;5715;48.234;14.320;2023-11-18T04:09:30;99285.00;;;10.60
11321;BMP180;5715;48.234;14.320;2023-11-18T04:12:17;99283.00;;;10.60
11321;BMP180;5715;48.234;14.320;2023-11-18T04:15:06;99296.00;;;10.60
11321;BMP180;5715;48.234;14.320;2023-11-18T04:17:54;99291.00;;;10.60
11321;BMP180;5715;48.234;14.320;2023-11-18T04:20:42;99299.00;;;10.70
11321;BMP180;5715;48.234;14.320;2023-11-18T04:23:30;99294.00;;;10.70
11321;BMP180;5715;48.234;14.320;2023-11-18T04:26:17;99296.00;;;10.70
11321;BMP180;5715;48.234;14.320;2023-11-18T04:29:05;99299.00;;;10.60
11321;BMP180;5715;48.234;14.320;2023-11-18T04:31:53;99296.00;;;10.70
11321;BMP180;5715;48.234;14.320;2023-11-18T04:34:41;99289.00;;;10.80
11321;BMP180;5715;48.234;14.320;2023-11-18T04:37:30;99281.00;;;10.80
11321;BMP180;5715;48.234;14.320;2023-11-18T04:40:17;99286.00;;;10.80
11321;BMP180;5715;48.234;14.320;2023-11-18T04:43:05;99292.00;;;10.70
11321;BMP180;5715;48.234;14.320;2023-11-18T04:45:52;99294.00;;;10.60
11321;BMP180;5715;48.234;14.320;2023-11-18T04:48:40;99289.00;;;10.70
11321;BMP180;5715;48.234;14.320;2023-11-18T04:51:29;99290.00;;;10.50
11321;BMP180;5715;48.234;14.320;2023-11-18T04:54:16;99297.00;;;10.50
11321;BMP180;5715;48.234;14.320;2023-11-18T04:57:04;99293.00;;;10.60
11321;BMP180;5715;48.234;14.320;2023-11-18T04:59:51;99313.00;;;10.60
11321;BMP180;5715;48.234;14.320;2023-11-18T05:02:39;99325.00;;;10.70
11321;BMP180;5715;48.234;14.320;2023-11-18T05:05:28;99315.00;;;10.70
11321;BMP180;5715;48.234;14.320;2023-11-18T05:08:20;99312.00;;;10.80
11321;BMP180;5715;48.234;14.320;2023-11-18T05:11:08;99316.00;;;10.70
11321;BMP180;5715;48.234;14.320;2023-11-18T05:13:56;99324.00;;;10.80
11321;BMP180;5715;48.234;14.320;2023-11-18T05:16:44;99321.00;;;10.70
11321;BMP180;5715;48.234;14.320;2023-11-18T05:19:31;99322.00;;;10.70
11321;BMP180;5715;48.234;14.320;2023-11-18T05:22:20;99319.00;;;10.70
11321;BMP180;5715;48.234;14.320;2023-11-18T05:25:10;99317.00;;;10.60
11321;BMP180;5715;48.234;14.320;2023-11-18T05:27:57;99326.00;;;10.70
11321;BMP180;5715;48.234;14.320;2023-11-18T05:30:45;99323.00;;;10.60
11321;BMP180;5715;48.234;14.320;2023-11-18T05:33:33;99319.00;;;10.40
11321;BMP180;5715;48.234;14.320;2023-11-18T05:36:22;99316.00;;;10.50
11321;BMP180;5715;48.234;14.320;2023-11-18T05:39:15;99320.00;;;10.50
11321;BMP180;5715;48.234;14.320;2023-11-18T05:42:02;99318.00;;;10.40
11321;BMP180;5715;48.234;14.320;2023-11-18T05:44:52;99316.00;;;10.50
11321;BMP180;5715;48.234;14.320;2023-11-18T05:47:46;99323.00;;;10.50
11321;BMP180;5715;48.234;14.320;2023-11-18T05:50:34;99327.00;;;10.60
11321;BMP180;5715;48.234;14.320;2023-11-18T05:53:21;99327.00;;;10.50
11321;BMP180;5715;48.234;14.320;2023-11-18T05:56:16;99334.00;;;10.40
11321;BMP180;5715;48.234;14.320;2023-11-18T05:59:04;99335.00;;;10.40
11321;BMP180;5715;48.234;14.320;2023-11-18T06:01:51;99345.00;;;10.30
11321;BMP180;5715;48.234;14.320;2023-11-18T06:04:39;99335.00;;;10.40
11321;BMP180;5715;48.234;14.320;2023-11-18T06:07:27;99345.00;;;10.30
11321;BMP180;5715;48.234;14.320;2023-11-18T06:10:15;99341.00;;;10.30
11321;BMP180;5715;48.234;14.320;2023-11-18T06:13:02;99344.00;;;10.20
11321;BMP180;5715;48.234;14.320;2023-11-18T06:15:51;99360.00;;;10.30
11321;BMP180;5715;48.234;14.320;2023-11-18T06:18:39;99358.00;;;10.40
11321;BMP180;5715;48.234;14.320;2023-11-18T06:21:27;99356.00;;;10.10
11321;BMP180;5715;48.234;14.320;2023-11-18T06:24:18;99377.00;;;10.30
11321;BMP180;5715;48.234;14.320;2023-11-18T06:27:06;99373.00;;;10.00
11321;BMP180;5715;48.234;14.320;2023-11-18T06:29:54;99376.00;;;9.90
11321;BMP180;5715;48.234;14.320;2023-11-18T06:32:42;99379.00;;;10.00
11321;BMP180;5715;48.234;14.320;2023-11-18T06:35:29;99388.00;;;10.00
11321;BMP180;5715;48.234;14.320;2023-11-18T06:38:17;99382.00;;;10.10
11321;BMP180;5715;48.234;14.320;2023-11-18T06:41:06;99395.00;;;9.80
11321;BMP180;5715;48.234;14.320;2023-11-18T06:43:58;99399.00;;;10.00
11321;BMP180;5715;48.234;14.320;2023-11-18T06:46:48;99403.00;;;10.00
11321;BMP180;5715;48.234;14.320;2023-11-18T06:49:38;99393.00;;;10.20
11321;BMP180;5715;48.234;14.320;2023-11-18T06:52:28;99402.00;;;10.30
11321;BMP180;5715;48.234;14.320;2023-11-18T06:55:16;99395.00;;;10.40
11321;BMP180;5715;48.234;14.320;2023-11-18T06:58:03;99402.00;;;10.50
11321;BMP180;5715;48.234;14.320;2023-11-18T07:00:51;99399.00;;;10.30
11321;BMP180;5715;48.234;14.320;2023-11-18T07:03:38;99403.00;;;10.70
11321;BMP180;5715;48.234;14.320;2023-11-18T07:06:26;99403.00;;;10.70
11321;BMP180;5715;48.234;14.320;2023-11-18T07:09:14;99413.00;;;10.60
11321;BMP180;5715;48.234;14.320;2023-11-18T07:12:08;99411.00;;;10.70
11321;BMP180;5715;48.234;14.320;2023-11-18T07:14:55;99417.00;;;10.70
11321;BMP180;5715;48.234;14.320;2023-11-18T07:17:44;99417.00;;;10.80
11321;BMP180;5715;48.234;14.320;2023-11-18T07:20:31;99419.00;;;10.80
11321;BMP180;5715;48.234;14.320;2023-11-18T07:23:20;99416.00;;;10.90
11321;BMP180;5715;48.234;14.320;2023-11-18T07:26:07;99431.00;;;10.90
11321;BMP180;5715;48.234;14.320;2023-11-18T07:28:57;99425.00;;;10.90
11321;BMP180;5715;48.234;14.320;2023-11-18T07:31:44;99421.00;;;11.00
11321;BMP180;5715;48.234;14.320;2023-11-18T07:34:33;99426.00;;;11.00
11321;BMP180;5715;48.234;14.320;2023-11-18T07:37:20;99429.00;;;11.20
11321;BMP180;5715;48.234;14.320;2023-11-18T07:40:08;99423.00;;;11.20
11321;BMP180;5715;48.234;14.320;2023-11-18T07:43:03;99427.00;;;11.50
11321;BMP180;5715;48.234;14.320;2023-11-18T07:45:50;99424.00;;;11.70
11321;BMP180;5715;48.234;14.320;2023-11-18T07:48:40;99421.00;;;12.10
11321;BMP180;5715;48.234;14.320;2023-11-18T07:51:28;99429.00;;;12.30
11321;BMP180;5715;48.234;14.320;2023-11-18T07:54:16;99436.00;;;12.60
11321;BMP180;5715;48.234;14.320;2023-11-18T07:57:04;99437.00;;;12.50
11321;BMP180;5715;48.234;14.320;2023-11-18T07:59:53;99440.00;;;12.70
11321;BMP180;5715;48.234;14.320;2023-11-18T08:02:41;99445.00;;;12.80
11321;BMP180;5715;48.234;14.320;2023-11-18T08:05:29;99446.00;;;12.50
11321;BMP180;5715;48.234;14.320;2023-11-18T08:08:18;99448.00;;;12.80
11321;BMP180;5715;48.234;14.320;2023-11-18T08:11:06;99450.00;;;12.80
11321;BMP180;5715;48.234;14.320;2023-11-18T08:13:54;99448.00;;;12.30
11321;BMP180;5715;48.234;14.320;2023-11-18T08:16:42;99451.00;;;12.60
11321;BMP180;5715;48.234;14.320;2023-11-18T08:19:30;99460.00;;;12.90
11321;BMP180;5715;48.234;14.320;2023-11-18T08:22:19;99462.00;;;12.90
11321;BMP180;5715;48.234;14.320;2023-11-18T08:25:07;99456.00;;;12.80
11321;BMP180;5715;48.234;14.320;2023-11-18T08:27:55;99463.00;;;12.90
11321;BMP180;5715;48.234;14.320;2023-11-18T08:30:43;99462.00;;;12.90
11321;BMP180;5715;48.234;14.320;2023-11-18T08:33:30;99463.00;;;13.00
11321;BMP180;5715;48.234;14.320;2023-11-18T08:36:18;99471.00;;;12.90
11321;BMP180;5715;48.234;14.320;2023-11-18T08:39:06;99472.00;;;12.90
11321;BMP180;5715;48.234;14.320;2023-11-18T08:41:57;99465.00;;;13.00
11321;BMP180;5715;48.234;14.320;2023-11-18T08:44:44;99467.00;;;13.00
11321;BMP180;5715;48.234;14.320;2023-11-18T08:47:34;99472.00;;;12.90
11321;BMP180;5715;48.234;14.320;2023-11-18T08:50:22;99466.00;;;13.10
11321;BMP180;5715;48.234;14.320;2023-11-18T08:53:13;99465.00;;;13.10
11321;BMP180;5715;48.234;14.320;2023-11-18T08:56:09;99465.00;;;13.10
11321;BMP180;5715;48.234;14.320;2023-11-18T08:59:03;99475.00;;;13.00
11321;BMP180;5715;48.234;14.320;2023-11-18T09:01:56;99481.00;;;12.70
11321;BMP180;5715;48.234;14.320;2023-11-18T09:04:43;99482.00;;;12.90
11321;BMP180;5715;48.234;14.320;2023-11-18T09:07:31;99480.00;;;13.30
11321;BMP180;5715;48.234;14.320;2023-11-18T09:10:21;99492.00;;;13.30
11321;BMP180;5715;48.234;14.320;2023-11-18T09:13:09;99487.00;;;13.50
11321;BMP180;5715;48.234;14.320;2023-11-18T09:16:04;99509.00;;;13.50
11321;BMP180;5715;48.234;14.320;2023-11-18T09:18:55;99502.00;;;13.50
11321;BMP180;5715;48.234;14.320;2023-11-18T09:21:47;99506.00;;;13.30
11321;BMP180;5715;48.234;14.320;2023-11-18T09:24:35;99508.00;;;13.30
11321;BMP180;5715;48.234;14.320;2023-11-18T09:27:24;99514.00;;;13.30
11321;BMP180;5715;48.234;14.320;2023-11-18T09:30:11;99506.00;;;13.10
11321;BMP180;5715;48.234;14.320;2023-11-18T09:33:02;99511.00;;;13.10
11321;BMP180;5715;48.234;14.320;2023-11-18T09:35:56;99507.00;;;13.20
11321;BMP180;5715;48.234;14.320;2023-11-18T09:38:47;99510.00;;;13.50
11321;BMP180;5715;48.234;14.320;2023-11-18T09:41:36;99508.00;;;13.80
11321;BMP180;5715;48.234;14.320;2023-11-18T09:44:24;99507.00;;;14.10
11321;BMP180;5715;48.234;14.320;2023-11-18T09:47:16;99503.00;;;14.50
11321;BMP180;5715;48.234;14.320;2023-11-18T09:50:17;99497.00;;;14.70
11321;BMP180;5715;48.234;14.320;2023-11-18T09:53:09;99492.00;;;14.90
11321;BMP180;5715;48.234;14.320;2023-11-18T09:56:07;99483.00;;;15.00
11321;BMP180;5715;48.234;14.320;2023-11-18T09:59:29;99483.00;;;15.30
11321;BMP180;5715;48.234;14.320;2023-11-18T10:02:25;99475.00;;;15.20
11321;BMP180;5715;48.234;14.320;2023-11-18T10:05:17;99469.00;;;15.00
11321;BMP180;5715;48.234;14.320;2023-11-18T10:08:09;99472.00;;;14.80
11321;BMP180;5715;48.234;14.320;2023-11-18T10:10:56;99462.00;;;15.00
11321;BMP180;5715;48.234;14.320;2023-11-18T10:13:52;99454.00;;;15.00
11321;BMP180;5715;48.234;14.320;2023-11-18T10:16:45;99459.00;;;14.60
11321;BMP180;5715;48.234;14.320;2023-11-18T10:19:55;99460.00;;;14.90
11321;BMP180;5715;48.234;14.320;2023-11-18T10:23:09;99469.00;;;15.10
11321;BMP180;5715;48.234;14.320;2023-11-18T10:26:00;99464.00;;;15.40
11321;BMP180;5715;48.234;14.320;2023-11-18T10:28:48;99454.00;;;15.50
11321;BMP180;5715;48.234;14.320;2023-11-18T10:31:37;99458.00;;;15.80
11321;BMP180;5715;48.234;14.320;2023-11-18T10:34:25;99453.00;;;15.60
11321;BMP180;5715;48.234;14.320;2023-11-18T10:37:16;99445.00;;;15.60
11321;BMP180;5715;48.234;14.320;2023-11-18T10:40:05;99459.00;;;15.70
11321;BMP180;5715;48.234;14.320;2023-11-18T10:42:53;99460.00;;;15.70
11321;BMP180;5715;48.234;14.320;2023-11-18T10:45:40;99447.00;;;15.70
11321;BMP180;5715;48.234;14.320;2023-11-18T10:48:32;99460.00;;;15.50
11321;BMP180;5715;48.234;14.320;2023-11-18T10:51:20;99466.00;;;15.60
11321;BMP180;5715;48.234;14.320;2023-11-18T10:54:10;99467.00;;;15.70
11321;BMP180;5715;48.234;14.320;2023-11-18T10:57:05;99462.00;;;15.50
11321;BMP180;5715;48.234;14.320;2023-11-18T11:00:03;99473.00;;;15.50
11321;BMP180;5715;48.234;14.320;2023-11-18T11:02:58;99459.00;;;15.50
11321;BMP180;5715;48.234;14.320;2023-11-18T11:05:46;99465.00;;;15.40
11321;BMP180;5715;48.234;14.320;2023-11-18T11:08:34;99468.00;;;15.30
11321;BMP180;5715;48.234;14.320;2023-11-18T11:11:43;99473.00;;;15.40
11321;BMP180;5715;48.234;14.320;2023-11-18T11:14:39;99457.00;;;15.60
11321;BMP180;5715;48.234;14.320;2023-11-18T11:17:29;99465.00;;;15.60
11321;BMP180;5715;48.234;14.320;2023-11-18T11:20:22;99458.00;;;15.60
11321;BMP180;5715;48.234;14.320;2023-11-18T11:29:54;99457.00;;;15.70
11321;BMP180;5715;48.234;14.320;2023-11-18T11:33:20;99462.00;;;15.90
11321;BMP180;5715;48.234;14.320;2023-11-18T11:36:17;99457.00;;;16.10
11321;BMP180;5715;48.234;14.320;2023-11-18T11:39:10;99458.00;;;16.30
11321;BMP180;5715;48.234;14.320;2023-11-18T11:42:07;99446.00;;;16.20
11321;BMP180;5715;48.234;14.320;2023-11-18T11:44:57;99449.00;;;16.30
11321;BMP180;5715;48.234;14.320;2023-11-18T11:47:50;99452.00;;;16.10
11321;BMP180;5715;48.234;14.320;2023-11-18T11:54:12;99448.00;;;15.70
11321;BMP180;5715;48.234;14.320;2023-11-18T11:57:04;99453.00;;;15.70
11321;BMP180;5715;48.234;14.320;2023-11-18T12:02:50;99453.00;;;15.60
11321;BMP180;5715;48.234;14.320;2023-11-18T12:05:42;99448.00;;;15.50
11321;BMP180;5715;48.234;14.320;2023-11-18T12:08:31;99441.00;;;15.60
11321;BMP180;5715;48.234;14.320;2023-11-18T12:11:19;99448.00;;;15.60
11321;BMP180;5715;48.234;14.320;2023-11-18T12:14:10;99445.00;;;15.70
11321;BMP180;5715;48.234;14.320;2023-11-18T12:17:11;99448.00;;;15.60
11321;BMP180;5715;48.234;14.320;2023-11-18T12:20:01;99449.00;;;16.00
11321;BMP180;5715;48.234;14.320;2023-11-18T12:23:05;99441.00;;;15.80
11321;BMP180;5715;48.234;14.320;2023-11-18T12:26:38;99443.00;;;15.60
11321;BMP180;5715;48.234;14.320;2023-11-18T12:29:32;99438.00;;;15.30
11321;BMP180;5715;48.234;14.320;2023-11-18T12:42:06;99425.00;;;15.50
11321;BMP180;5715;48.234;14.320;2023-11-18T12:48:31;99423.00;;;15.40
11321;BMP180;5715;48.234;14.320;2023-11-18T12:51:23;99429.00;;;15.60
11321;BMP180;5715;48.234;14.320;2023-11-18T12:54:12;99428.00;;;15.70
11321;BMP180;5715;48.234;14.320;2023-11-18T12:57:01;99421.00;;;15.80
11321;BMP180;5715;48.234;14.320;2023-11-18T12:59:49;99417.00;;;15.70
11321;BMP180;5715;48.234;14.320;2023-11-18T13:02:37;99427.00;;;15.70
11321;BMP180;5715;48.234;14.320;2023-11-18T13:05:26;99420.00;;;15.60
11321;BMP180;5715;48.234;14.320;2023-11-18T13:08:18;99416.00;;;15.70
11321;BMP180;5715;48.234;14.320;2023-11-18T13:11:07;99409.00;;;15.80
11321;BMP180;5715;48.234;14.320;2023-11-18T13:13:59;99395.00;;;15.90
11321;BMP180;5715;48.234;14.320;2023-11-18T13:16:47;99394.00;;;16.00
11321;BMP180;5715;48.234;14.320;2023-11-18T13:19:37;99384.00;;;15.80
11321;BMP180;5715;48.234;14.320;2023-11-18T13:22:25;99398.00;;;15.60
11321;BMP180;5715;48.234;14.320;2023-11-18T13:25:32;99385.00;;;15.50
11321;BMP180;5715;48.234;14.320;2023-11-18T13:28:24;99386.00;;;15.60
11321;BMP180;5715;48.234;14.320;2023-11-18T13:31:12;99386.00;;;15.80
11321;BMP180;5715;48.234;14.320;2023-11-18T13:34:04;99387.00;;;15.50
11321;BMP180;5715;48.234;14.320;2023-11-18T13:36:54;99380.00;;;15.80
11321;BMP180;5715;48.234;14.320;2023-11-18T13:39:43;99373.00;;;15.80
11321;BMP180;5715;48.234;14.320;2023-11-18T13:42:34;99382.00;;;15.70
11321;BMP180;5715;48.234;14.320;2023-11-18T13:45:25;99371.00;;;15.50
11321;BMP180;5715;48.234;14.320;2023-11-18T13:48:24;99374.00;;;15.60
11321;BMP180;5715;48.234;14.320;2023-11-18T13:51:12;99363.00;;;15.70
11321;BMP180;5715;48.234;14.320;2023-11-18T13:54:00;99365.00;;;15.50
11321;BMP180;5715;48.234;14.320;2023-11-18T13:56:49;99365.00;;;15.40
11321;BMP180;5715;48.234;14.320;2023-11-18T13:59:38;99358.00;;;15.40
11321;BMP180;5715;48.234;14.320;2023-11-18T14:02:27;99370.00;;;15.30
11321;BMP180;5715;48.234;14.320;2023-11-18T14:05:17;99362.00;;;15.40
11321;BMP180;5715;48.234;14.320;2023-11-18T14:08:06;99361.00;;;15.40
11321;BMP180;5715;48.234;14.320;2023-11-18T14:10:58;99375.00;;;15.30
11321;BMP180;5715;48.234;14.320;2023-11-18T14:13:50;99378.00;;;15.30
11321;BMP180;5715;48.234;14.320;2023-11-18T14:16:40;99383.00;;;15.20
11321;BMP180;5715;48.234;14.320;2023-11-18T14:19:28;99391.00;;;15.20
11321;BMP180;5715;48.234;14.320;2023-11-18T14:22:16;99369.00;;;15.10
11321;BMP180;5715;48.234;14.320;2023-11-18T14:25:05;99387.00;;;15.20
11321;BMP180;5715;48.234;14.320;2023-11-18T14:27:53;99384.00;;;15.20
11321;BMP180;5715;48.234;14.320;2023-11-18T14:30:41;99382.00;;;15.20
11321;BMP180;5715;48.234;14.320;2023-11-18T14:33:29;99372.00;;;15.10
11321;BMP180;5715;48.234;14.320;2023-11-18T14:36:18;99378.00;;;15.20
11321;BMP180;5715;48.234;14.320;2023-11-18T14:39:06;99383.00;;;15.10
11321;BMP180;5715;48.234;14.320;2023-11-18T14:41:57;99381.00;;;15.00
11321;BMP180;5715;48.234;14.320;2023-11-18T14:44:45;99372.00;;;14.90
11321;BMP180;5715;48.234;14.320;2023-11-18T14:47:32;99382.00;;;14.80
11321;BMP180;5715;48.234;14.320;2023-11-18T14:50:21;99386.00;;;14.70
11321;BMP180;5715;48.234;14.320;2023-11-18T14:53:11;99374.00;;;14.50
11321;BMP180;5715;48.234;14.320;2023-11-18T14:55:58;99378.00;;;14.40
11321;BMP180;5715;48.234;14.320;2023-11-18T14:58:46;99380.00;;;14.40
11321;BMP180;5715;48.234;14.320;2023-11-18T15:01:36;99372.00;;;14.40
11321;BMP180;5715;48.234;14.320;2023-11-18T15:04:24;99368.00;;;14.30
11321;BMP180;5715;48.234;14.320;2023-11-18T15:07:12;99370.00;;;14.20
11321;BMP180;5715;48.234;14.320;2023-11-18T15:09:59;99370.00;;;14.20
11321;BMP180;5715;48.234;14.320;2023-11-18T15:12:53;99360.00;;;14.20
11321;BMP180;5715;48.234;14.320;2023-11-18T15:15:43;99358.00;;;14.20
11321;BMP180;5715;48.234;14.320;2023-11-18T15:18:32;99348.00;;;14.20
11321;BMP180;5715;48.234;14.320;2023-11-18T15:21:22;99339.00;;;14.20
11321;BMP180;5715;48.234;14.320;2023-11-18T15:24:10;99338.00;;;14.30
11321;BMP180;5715;48.234;14.320;2023-11-18T15:27:01;99335.00;;;14.30
11321;BMP180;5715;48.234;14.320;2023-11-18T15:29:51;99329.00;;;14.30
11321;BMP180;5715;48.234;14.320;2023-11-18T15:32:40;99329.00;;;14.30
11321;BMP180;5715;48.234;14.320;2023-11-18T15:35:28;99329.00;;;14.30
11321;BMP180;5715;48.234;14.320;2023-11-18T15:38:15;99334.00;;;14.20
11321;BMP180;5715;48.234;14.320;2023-11-18T15:41:11;99346.00;;;14.20
11321;BMP180;5715;48.234;14.320;2023-11-18T15:43:59;99333.00;;;14.20
11321;BMP180;5715;48.234;14.320;2023-11-18T15:46:49;99345.00;;;14.20
11321;BMP180;5715;48.234;14.320;2023-11-18T15:49:37;99350.00;;;14.00
11321;BMP180;5715;48.234;14.320;2023-11-18T15:52:24;99345.00;;;14.00
11321;BMP180;5715;48.234;14.320;2023-11-18T15:55:12;99341.00;;;14.00
11321;BMP180;5715;48.234;14.320;2023-11-18T15:58:02;99341.00;;;13.90
11321;BMP180;5715;48.234;14.320;2023-11-18T16:00:51;99337.00;;;13.90
11321;BMP180;5715;48.234;14.320;2023-11-18T16:03:40;99338.00;;;13.80
11321;BMP180;5715;48.234;14.320;2023-11-18T16:06:28;99331.00;;;13.80
11321;BMP180;5715;48.234;14.320;2023-11-18T16:09:16;99328.00;;;13.70
11321;BMP180;5715;48.234;14.320;2023-11-18T16:12:04;99334.00;;;13.60
11321;BMP180;5715;48.234;14.320;2023-11-18T16:14:52;99336.00;;;13.70
11321;BMP180;5715;48.234;14.320;2023-11-18T16:17:40;99331.00;;;13.70
11321;BMP180;5715;48.234;14.320;2023-11-18T16:20:31;99338.00;;;13.70
11321;BMP180;5715;48.234;14.320;2023-11-18T16:23:20;99337.00;;;13.60
11321;BMP180;5715;48.234;14.320;2023-11-18T16:26:08;99335.00;;;13.50
11321;BMP180;5715;48.234;14.320;2023-11-18T16:28:56;99328.00;;;13.40
11321;BMP180;5715;48.234;14.320;2023-11-18T16:31:45;99323.00;;;13.30
11321;BMP180;5715;48.234;14.320;2023-11-18T16:34:32;99319.00;;;13.10
11321;BMP180;5715;48.234;14.320;2023-11-18T16:37:20;99298.00;;;13.10
11321;BMP180;5715;48.234;14.320;2023-11-18T16:40:10;99296.00;;;13.10
11321;BMP180;5715;48.234;14.320;2023-11-18T16:43:01;99292.00;;;12.90
11321;BMP180;5715;48.234;14.320;2023-11-18T16:45:49;99292.00;;;12.80
11321;BMP180;5715;48.234;14.320;2023-11-18T16:48:38;99285.00;;;12.80